Terminal Aerodrome Forecast
Issued by NWS

Home | Current Version | Previous Version | Graphics & Text | Print | Product List | Glossary On
Versions: 1 2 3 4 5 6 7 8 9 10 11 12 13 14 15 16 17 18 19 20 21 22 23 24 25 26 27 28 29 30 31 32
000
FTUS43 KLOT 271700
TAFDPA
TAF
KDPA 271725Z 2718/2818 20015G23KT P6SM BKN200
     FM280000 21013G18KT P6SM BKN100
     FM280200 21012KT P6SM VCSH BKN050
     FM280600 23011KT 6SM -SHRA SCT020 OVC035 PROB30 2806/2809 -TSRA
      BKN030CB
     FM281000 28012G20KT P6SM SCT030 BKN060
     FM281500 26016G27KT P6SM SCT250=

USA.gov is the U.S. government's official web portal to all federal, state and local government web resources and services.